createdAt,value
2018-04-20T00:00:34.376Z,102391.73
2018-04-20T00:03:01.913Z,102387.47
2018-04-20T00:05:29.444Z,102390.03
2018-04-20T00:07:57.033Z,102380.14
2018-04-20T00:10:24.554Z,102379.46
2018-04-20T00:12:52.084Z,102371.23
2018-04-20T00:15:19.610Z,102377.55
2018-04-20T00:17:47.272Z,102372.77
2018-04-20T00:20:14.803Z,102375.39
2018-04-20T00:22:42.388Z,102372.87
2018-04-20T00:25:09.903Z,102362.64
2018-04-20T00:27:37.540Z,102369.27
2018-04-20T00:30:05.068Z,102362.80
2018-04-20T00:32:32.591Z,102362.84
2018-04-20T00:35:00.163Z,102360.41
2018-04-20T00:37:27.748Z,102359.02
2018-04-20T00:39:55.265Z,102352.93
2018-04-20T00:42:22.792Z,102350.98
2018-04-20T00:44:50.326Z,102348.27
2018-04-20T00:47:17.855Z,102339.94
2018-04-20T00:49:45.377Z,102338.75
2018-04-20T00:52:12.902Z,102333.52
2018-04-20T00:54:40.435Z,102331.09
2018-04-20T00:57:07.964Z,102333.73
2018-04-20T00:59:35.485Z,102334.69
2018-04-20T01:02:03.045Z,102332.65
2018-04-20T01:04:30.573Z,102333.45
2018-04-20T01:06:58.101Z,102333.77
2018-04-20T01:09:25.726Z,102331.02
2018-04-20T01:11:53.250Z,102330.63
2018-04-20T01:14:20.769Z,102331.22
2018-04-20T01:16:48.286Z,102333.53
2018-04-20T01:19:15.805Z,102334.52
2018-04-20T01:21:43.331Z,102333.84
2018-04-20T01:24:10.968Z,102330.30
2018-04-20T01:26:38.493Z,102337.17
2018-04-20T01:29:06.062Z,102332.91
2018-04-20T01:31:33.596Z,102326.98
2018-04-20T01:34:01.152Z,102318.11
2018-04-20T01:36:28.670Z,102321.37
2018-04-20T01:38:56.205Z,102319.01
2018-04-20T01:41:23.733Z,102324.25
2018-04-20T01:43:51.357Z,102322.45
2018-04-20T01:46:18.911Z,102318.88
2018-04-20T01:48:46.444Z,102316.22
2018-04-20T01:51:13.961Z,102311.73
2018-04-20T01:53:41.497Z,102315.52
2018-04-20T01:56:09.240Z,102313.67
2018-04-20T01:58:36.892Z,102315.28
2018-04-20T02:01:04.418Z,102308.41
2018-04-20T02:03:32.043Z,102312.95
2018-04-20T02:05:59.607Z,102313.70
2018-04-20T02:08:27.160Z,102312.39
2018-04-20T02:10:54.825Z,102310.12
2018-04-20T02:13:22.352Z,102305.52
2018-04-20T02:15:49.935Z,102299.70
2018-04-20T02:18:17.500Z,102299.05
2018-04-20T02:20:45.066Z,102294.95
2018-04-20T02:23:12.658Z,102293.90
2018-04-20T02:25:40.291Z,102292.84
2018-04-20T02:28:07.849Z,102296.20
2018-04-20T02:30:35.393Z,102289.84
2018-04-20T02:33:02.933Z,102290.57
2018-04-20T02:35:30.480Z,102286.69
2018-04-20T02:37:58.088Z,102287.56
2018-04-20T02:40:25.854Z,102287.13
2018-04-20T02:42:53.476Z,102283.27
2018-04-20T02:45:21.239Z,102284.83
2018-04-20T02:47:48.831Z,102288.32
2018-04-20T02:50:16.387Z,102277.87
2018-04-20T02:52:43.925Z,102282.48
2018-04-20T02:55:11.441Z,102283.05
2018-04-20T02:57:38.978Z,102286.83
2018-04-20T03:00:06.504Z,102282.62
2018-04-20T03:02:34.100Z,102284.66
2018-04-20T03:05:01.661Z,102283.17
2018-04-20T03:07:29.183Z,102288.17
2018-04-20T03:09:56.724Z,102285.20
2018-04-20T03:12:24.336Z,102278.37
2018-04-20T03:14:51.862Z,102280.23
2018-04-20T03:17:19.455Z,102275.81
2018-04-20T03:19:46.983Z,102275.06
2018-04-20T03:22:14.506Z,102280.58
2018-04-20T03:24:42.132Z,102275.95
2018-04-20T03:27:09.665Z,102276.92
2018-04-20T03:29:37.190Z,102270.95
2018-04-20T03:32:04.717Z,102280.67
2018-04-20T03:34:32.240Z,102275.98
2018-04-20T03:36:59.763Z,102278.01
2018-04-20T03:39:27.289Z,102272.67
2018-04-20T03:41:54.820Z,102282.16
2018-04-20T03:44:22.414Z,102279.43
2018-04-20T03:46:49.969Z,102286.42
2018-04-20T03:49:17.536Z,102276.73
2018-04-20T03:51:45.061Z,102278.58
2018-04-20T03:54:12.621Z,102277.91
2018-04-20T03:56:40.152Z,102281.80
2018-04-20T03:59:07.671Z,102275.20
2018-04-20T04:01:35.204Z,102272.64
2018-04-20T04:04:02.727Z,102277.00
2018-04-20T04:06:30.242Z,102280.03
2018-04-20T04:08:57.808Z,102269.50
2018-04-20T04:11:25.351Z,102276.35
2018-04-20T04:13:52.885Z,102272.33
2018-04-20T04:16:32.236Z,102279.39
2018-04-20T04:19:11.702Z,102276.55
2018-04-20T04:24:58.742Z,102274.77
2018-04-20T04:27:37.977Z,102273.95
2018-04-20T04:30:05.500Z,102270.88
2018-04-20T04:32:33.023Z,102267.57
2018-04-20T04:35:00.559Z,102275.58
2018-04-20T04:37:28.095Z,102273.81
2018-04-20T04:39:55.628Z,102271.33
2018-04-20T04:42:23.164Z,102280.95
2018-04-20T04:44:50.690Z,102276.25
2018-04-20T04:47:18.222Z,102273.22
2018-04-20T04:49:45.795Z,102277.17
2018-04-20T04:52:13.310Z,102274.91
2018-04-20T04:54:40.927Z,102277.54
2018-04-20T04:57:08.471Z,102279.09
2018-04-20T04:59:35.987Z,102279.29
2018-04-20T05:02:03.524Z,102278.81
2018-04-20T05:04:31.167Z,102276.02
2018-04-20T05:06:58.703Z,102276.59
2018-04-20T05:09:26.249Z,102275.69
2018-04-20T05:11:53.782Z,102274.81
2018-04-20T05:14:21.301Z,102269.96
2018-04-20T05:16:48.841Z,102271.97
2018-04-20T05:19:16.410Z,102267.95
2018-04-20T05:21:43.940Z,102265.91
2018-04-20T05:24:11.467Z,102270.54
2018-04-20T05:26:39.004Z,102263.36
2018-04-20T05:29:06.540Z,102260.84
2018-04-20T05:31:34.175Z,102259.77
2018-04-20T05:34:01.713Z,102251.17
2018-04-20T05:36:29.242Z,102251.27
2018-04-20T05:38:56.776Z,102249.59
2018-04-20T05:41:24.318Z,102245.80
2018-04-20T05:43:51.884Z,102246.05
2018-04-20T05:46:19.408Z,102240.27
2018-04-20T05:48:46.941Z,102247.97
2018-04-20T05:51:14.477Z,102239.83
2018-04-20T05:53:42.008Z,102240.19
2018-04-20T05:56:09.570Z,102245.97
2018-04-20T05:58:37.132Z,102239.11
2018-04-20T06:01:04.689Z,102233.77
2018-04-20T06:03:32.223Z,102227.24
2018-04-20T06:05:59.759Z,102231.06
2018-04-20T06:08:27.313Z,102228.47
2018-04-20T06:10:55.062Z,102225.08
2018-04-20T06:13:22.611Z,102226.48
2018-04-20T06:15:50.189Z,102226.09
2018-04-20T06:18:17.715Z,102228.39
2018-04-20T06:20:45.260Z,102225.11
2018-04-20T06:23:12.817Z,102221.73
2018-04-20T06:25:40.385Z,102220.63
2018-04-20T06:28:07.923Z,102216.57
2018-04-20T06:30:35.464Z,102215.34
2018-04-20T06:33:02.987Z,102214.08
2018-04-20T06:35:30.527Z,102204.09
2018-04-20T06:37:58.052Z,102207.45
2018-04-20T06:40:25.620Z,102206.01
2018-04-20T06:42:53.260Z,102203.83
2018-04-20T06:45:20.789Z,102202.72
2018-04-20T06:47:48.334Z,102190.52
2018-04-20T06:50:15.863Z,102193.36
2018-04-20T06:52:43.483Z,102183.94
2018-04-20T06:55:11.029Z,102186.55
2018-04-20T06:57:38.634Z,102184.83
2018-04-20T07:00:06.282Z,102184.80
2018-04-20T07:02:33.808Z,102189.56
2018-04-20T07:05:01.370Z,102182.27
2018-04-20T07:07:28.903Z,102187.25
2018-04-20T07:09:56.467Z,102183.56
2018-04-20T07:12:24.047Z,102184.21
2018-04-20T07:14:51.569Z,102175.20
2018-04-20T07:17:19.126Z,102181.00
2018-04-20T07:19:46.627Z,102182.45
2018-04-20T07:22:14.186Z,102183.58
2018-04-20T07:24:41.721Z,102178.22
2018-04-20T07:27:09.239Z,102167.39
2018-04-20T07:29:36.796Z,102164.23
2018-04-20T07:32:04.324Z,102170.72
2018-04-20T07:34:31.840Z,102170.21
2018-04-20T07:36:59.363Z,102162.98
2018-04-20T07:39:26.900Z,102157.86
2018-04-20T07:41:54.477Z,102161.20
2018-04-20T07:44:22.006Z,102157.56
2018-04-20T07:46:49.597Z,102157.11
2018-04-20T07:49:17.177Z,102153.67
2018-04-20T07:51:44.686Z,102150.31
2018-04-20T07:54:12.231Z,102146.42
2018-04-20T07:56:39.746Z,102142.86
2018-04-20T07:59:07.280Z,102138.83
2018-04-20T08:01:34.798Z,102135.39
2018-04-20T08:04:02.421Z,102136.82
2018-04-20T08:06:29.989Z,102125.88
2018-04-20T08:08:57.504Z,102134.79
2018-04-20T08:11:25.060Z,102129.55
2018-04-20T08:13:52.660Z,102127.88
2018-04-20T08:16:20.167Z,102116.03
2018-04-20T08:18:47.715Z,102125.22
2018-04-20T08:21:15.346Z,102127.55
2018-04-20T08:23:42.860Z,102126.34
2018-04-20T08:26:10.384Z,102122.56
2018-04-20T08:28:37.910Z,102111.58
2018-04-20T08:31:05.420Z,102110.19
2018-04-20T08:33:32.948Z,102110.14
2018-04-20T08:36:00.466Z,102110.88
2018-04-20T08:38:28.024Z,102117.59
2018-04-20T08:40:55.542Z,102107.73
2018-04-20T08:43:23.051Z,102100.67
2018-04-20T08:45:50.626Z,102099.77
2018-04-20T08:48:18.152Z,102091.34
2018-04-20T08:50:45.750Z,102094.20
2018-04-20T08:53:13.260Z,102088.84
2018-04-20T08:55:40.780Z,102077.77
2018-04-20T08:58:08.290Z,102088.66
2018-04-20T09:00:35.900Z,102080.55
2018-04-20T09:03:03.428Z,102085.08
2018-04-20T09:05:30.943Z,102085.52
2018-04-20T09:07:58.563Z,102072.69
2018-04-20T09:10:26.077Z,102075.56
2018-04-20T09:12:53.582Z,102075.47
2018-04-20T09:15:21.123Z,102070.45
2018-04-20T09:17:48.719Z,102067.50
2018-04-20T09:20:16.239Z,102062.30
2018-04-20T09:22:43.759Z,102069.84
2018-04-20T09:25:11.288Z,102060.06
2018-04-20T09:27:38.803Z,102062.90
2018-04-20T09:30:06.323Z,102058.42
2018-04-20T09:32:33.845Z,102048.94
2018-04-20T09:35:01.355Z,102047.67
2018-04-20T09:37:28.983Z,102047.97
2018-04-20T09:39:56.502Z,102050.37
2018-04-20T09:42:24.115Z,102045.72
2018-04-20T09:44:51.626Z,102040.86
2018-04-20T09:47:19.218Z,102046.59
2018-04-20T09:49:46.730Z,102041.17
2018-04-20T09:52:14.268Z,102028.39
2018-04-20T09:54:41.850Z,102030.92
2018-04-20T09:57:09.336Z,102031.05
2018-04-20T09:59:36.856Z,102026.36
2018-04-20T10:02:04.491Z,102026.70
2018-04-20T10:04:31.999Z,102018.27
2018-04-20T10:06:59.527Z,102022.12
2018-04-20T10:09:27.240Z,102023.61
2018-04-20T10:11:54.941Z,102013.77
2018-04-20T10:14:22.456Z,102016.01
2018-04-20T10:16:50.059Z,102012.16
2018-04-20T10:19:17.580Z,102011.08
2018-04-20T10:21:45.096Z,102003.63
2018-04-20T10:24:12.735Z,101994.81
2018-04-20T10:26:40.260Z,101995.26
2018-04-20T10:29:07.777Z,101993.62
2018-04-20T10:31:35.309Z,101987.72
2018-04-20T10:34:02.832Z,101988.35
2018-04-20T10:36:30.366Z,101988.65
2018-04-20T10:38:57.990Z,101992.34
2018-04-20T10:41:25.517Z,101990.79
2018-04-20T10:43:53.031Z,101994.41
2018-04-20T10:46:20.654Z,101988.19
2018-04-20T10:48:48.224Z,101982.42
2018-04-20T10:51:15.758Z,101973.42
2018-04-20T10:53:43.280Z,101977.55
2018-04-20T10:56:10.908Z,101970.53
2018-04-20T10:58:38.463Z,101973.63
2018-04-20T11:01:05.992Z,101958.28
2018-04-20T11:03:33.548Z,101965.23
2018-04-20T11:06:01.072Z,101965.30
2018-04-20T11:08:28.601Z,101956.97
2018-04-20T11:10:56.132Z,101960.34
2018-04-20T11:13:23.652Z,101959.59
2018-04-20T11:15:51.179Z,101958.47
2018-04-20T11:18:18.736Z,101957.72
2018-04-20T11:20:46.286Z,101956.00
2018-04-20T11:23:13.821Z,101950.23
2018-04-20T11:25:41.353Z,101944.23
2018-04-20T11:28:08.863Z,101943.70
2018-04-20T11:30:36.418Z,101942.80
2018-04-20T11:33:03.998Z,101945.58
2018-04-20T11:35:31.523Z,101939.41
2018-04-20T11:37:59.051Z,101935.49
2018-04-20T11:40:26.575Z,101935.14
2018-04-20T11:42:54.096Z,101933.38
2018-04-20T11:45:21.652Z,101937.09
2018-04-20T11:47:49.192Z,101928.07
2018-04-20T11:50:16.744Z,101922.24
2018-04-20T11:52:44.365Z,101922.28
2018-04-20T11:55:11.905Z,101916.70
2018-04-20T11:57:39.465Z,101920.95
2018-04-20T12:00:06.984Z,101914.22
2018-04-20T12:02:34.514Z,101906.45
2018-04-20T12:05:02.028Z,101902.52
2018-04-20T12:07:29.557Z,101902.66
2018-04-20T12:09:57.179Z,101905.07
2018-04-20T12:12:24.708Z,101899.03
2018-04-20T12:14:52.248Z,101889.57
2018-04-20T12:17:19.771Z,101892.45
2018-04-20T12:19:47.288Z,101888.22
2018-04-20T12:22:14.799Z,101881.61
2018-04-20T12:24:42.348Z,101886.45
2018-04-20T12:27:09.877Z,101873.13
2018-04-20T12:29:37.397Z,101876.88
2018-04-20T12:32:05.029Z,101869.11
2018-04-20T12:34:32.549Z,101871.27
2018-04-20T12:37:00.068Z,101865.52
2018-04-20T12:39:27.705Z,101863.00
2018-04-20T12:41:55.268Z,101865.25
2018-04-20T12:44:22.841Z,101856.16
2018-04-20T12:46:50.345Z,101859.94
2018-04-20T12:49:17.868Z,101850.94
2018-04-20T12:51:45.495Z,101850.72
2018-04-20T12:54:13.069Z,101854.23
2018-04-20T12:56:40.598Z,101841.22
2018-04-20T12:59:08.128Z,101840.23
2018-04-20T13:01:35.689Z,101839.23
2018-04-20T13:04:03.243Z,101827.65
2018-04-20T13:06:30.870Z,101828.81
2018-04-20T13:08:58.388Z,101825.56
2018-04-20T13:11:25.912Z,101821.97
2018-04-20T13:13:53.427Z,101815.89
2018-04-20T13:16:20.941Z,101814.19
2018-04-20T13:18:48.555Z,101807.67
2018-04-20T13:21:16.078Z,101804.45
2018-04-20T13:23:43.603Z,101798.94
2018-04-20T13:26:11.119Z,101791.34
2018-04-20T13:28:38.645Z,101788.18
2018-04-20T13:31:06.166Z,101789.17
2018-04-20T13:33:33.676Z,101781.09
2018-04-20T13:36:01.208Z,101781.09
2018-04-20T13:38:28.838Z,101780.06
2018-04-20T13:40:56.356Z,101775.84
2018-04-20T13:43:23.895Z,101769.17
2018-04-20T13:45:51.420Z,101766.98
2018-04-20T13:48:18.939Z,101761.84
2018-04-20T13:50:46.475Z,101763.39
2018-04-20T13:53:13.996Z,101749.41
2018-04-20T13:55:41.596Z,101747.71
2018-04-20T13:58:09.090Z,101742.70
2018-04-20T14:00:36.689Z,101737.58
2018-04-20T14:03:04.334Z,101735.66
2018-04-20T14:05:31.864Z,101733.79
2018-04-20T14:07:59.381Z,101728.11
2018-04-20T14:10:26.924Z,101724.36
2018-04-20T14:12:54.477Z,101727.14
2018-04-20T14:15:21.998Z,101719.39
2018-04-20T14:17:49.553Z,101711.30
2018-04-20T14:20:17.119Z,101703.26
2018-04-20T14:22:44.639Z,101704.28
2018-04-20T14:25:12.160Z,101700.63
2018-04-20T14:27:39.705Z,101703.26
2018-04-20T14:30:07.229Z,101693.60
2018-04-20T14:32:34.778Z,101695.83
2018-04-20T14:35:02.413Z,101689.47
2018-04-20T14:37:29.979Z,101683.17
2018-04-20T14:39:57.505Z,101686.99
2018-04-20T14:42:25.048Z,101687.64
2018-04-20T14:44:52.592Z,101685.88
2018-04-20T14:47:20.208Z,101682.42
2018-04-20T14:49:47.727Z,101672.16
2018-04-20T14:52:15.277Z,101673.02
2018-04-20T14:54:42.881Z,101666.16
2018-04-20T14:57:10.389Z,101670.17
2018-04-20T14:59:37.999Z,101667.78
2018-04-20T15:02:05.511Z,101657.45
2018-04-20T15:04:33.034Z,101656.30
2018-04-20T15:07:00.556Z,101652.52
2018-04-20T15:09:28.151Z,101651.92
2018-04-20T15:11:55.675Z,101650.52
2018-04-20T15:14:23.200Z,101643.52
2018-04-20T15:16:50.724Z,101642.95
2018-04-20T15:19:18.244Z,101640.39
2018-04-20T15:21:45.844Z,101641.22
2018-04-20T15:24:13.395Z,101635.17
2018-04-20T15:26:40.916Z,101640.09
2018-04-20T15:29:08.528Z,101630.95
2018-04-20T15:31:36.085Z,101624.23
2018-04-20T15:34:03.606Z,101616.00
2018-04-20T15:36:31.211Z,101612.05
2018-04-20T15:38:58.734Z,101612.00
2018-04-20T15:41:26.299Z,101613.06
2018-04-20T15:43:53.820Z,101607.52
2018-04-20T15:46:21.450Z,101597.56
2018-04-20T15:48:48.979Z,101601.12
2018-04-20T15:51:16.504Z,101598.55
2018-04-20T15:53:44.052Z,101598.75
2018-04-20T15:56:11.581Z,101589.75
2018-04-20T15:58:39.095Z,101598.88
2018-04-20T16:01:06.713Z,101590.34
2018-04-20T16:03:34.270Z,101589.03
2018-04-20T16:06:01.782Z,101586.14
2018-04-20T16:08:29.322Z,101582.55
2018-04-20T16:10:56.844Z,101579.44
2018-04-20T16:13:24.368Z,101576.17
2018-04-20T16:15:51.895Z,101574.74
2018-04-20T16:18:19.405Z,101572.45
2018-04-20T16:20:46.944Z,101568.96
2018-04-20T16:23:14.517Z,101557.35
2018-04-20T16:25:42.039Z,101565.86
2018-04-20T16:28:09.559Z,101558.02
2018-04-20T16:30:37.117Z,101564.06
2018-04-20T16:33:04.631Z,101550.38
2018-04-20T16:35:32.148Z,101554.00
2018-04-20T16:37:59.733Z,101550.19
2018-04-20T16:40:27.310Z,101541.77
2018-04-20T16:42:54.904Z,101540.01
2018-04-20T16:45:22.464Z,101540.32
2018-04-20T16:47:49.979Z,101540.59
2018-04-20T16:50:17.508Z,101538.67
2018-04-20T16:52:45.068Z,101536.73
2018-04-20T16:55:12.584Z,101527.47
2018-04-20T16:57:40.107Z,101528.48
2018-04-20T17:00:07.617Z,101523.02
2018-04-20T17:02:35.185Z,101524.58
2018-04-20T17:05:02.704Z,101520.03
2018-04-20T17:07:30.268Z,101522.05
2018-04-20T17:09:57.836Z,101517.87
2018-04-20T17:12:25.365Z,101518.55
2018-04-20T17:14:52.956Z,101511.98
2018-04-20T17:17:20.915Z,101513.91
2018-04-20T17:19:48.516Z,101506.84
2018-04-20T17:22:16.043Z,101515.64
2018-04-20T17:24:43.562Z,101509.20
2018-04-20T17:27:11.095Z,101508.01
2018-04-20T17:29:38.655Z,101513.72
2018-04-20T17:32:06.191Z,101512.75
2018-04-20T17:34:33.702Z,101516.09
2018-04-20T17:37:01.220Z,101514.25
2018-04-20T17:39:28.732Z,101515.20
2018-04-20T17:41:56.293Z,101513.72
2018-04-20T17:44:23.844Z,101514.66
2018-04-20T17:46:51.459Z,101511.87
2018-04-20T17:49:19.020Z,101513.33
2018-04-20T17:51:46.533Z,101508.61
2018-04-20T17:54:14.045Z,101514.73
2018-04-20T17:56:41.562Z,101511.78
2018-04-20T17:59:09.092Z,101505.81
2018-04-20T18:01:36.968Z,101512.02
2018-04-20T18:04:04.482Z,101510.72
2018-04-20T18:06:32.024Z,101510.83
2018-04-20T18:08:59.545Z,101509.92
2018-04-20T18:11:27.079Z,101508.82
2018-04-20T18:13:54.738Z,101512.83
2018-04-20T18:16:22.379Z,101507.73
2018-04-20T18:18:49.890Z,101513.52
2018-04-20T18:21:17.434Z,101514.05
2018-04-20T18:23:44.960Z,101515.66
2018-04-20T18:26:12.518Z,101516.70
2018-04-20T18:28:40.101Z,101514.27
2018-04-20T18:31:07.771Z,101514.97
2018-04-20T18:33:35.291Z,101516.13
2018-04-20T18:36:02.818Z,101516.27
2018-04-20T18:38:30.366Z,101520.41
2018-04-20T18:40:57.955Z,101522.67
2018-04-20T18:43:25.529Z,101522.70
2018-04-20T18:45:53.106Z,101527.38
2018-04-20T18:48:20.948Z,101522.65
2018-04-20T18:50:48.650Z,101520.86
2018-04-20T18:53:16.314Z,101528.64
2018-04-20T18:55:43.851Z,101531.39
2018-04-20T18:58:11.385Z,101533.62
2018-04-20T19:00:38.961Z,101533.70
2018-04-20T19:03:06.478Z,101533.99
2018-04-20T19:05:34.024Z,101532.47
2018-04-20T19:08:01.844Z,101537.94
2018-04-20T19:10:29.383Z,101536.41
2018-04-20T19:12:56.915Z,101533.20
2018-04-20T19:15:24.457Z,101534.50
2018-04-20T19:17:52.119Z,101536.50
2018-04-20T19:20:19.676Z,101537.23
2018-04-20T19:22:47.221Z,101536.46
2018-04-20T19:25:15.074Z,101534.87
2018-04-20T19:27:42.667Z,101533.59
2018-04-20T19:30:10.330Z,101531.55
2018-04-20T19:32:38.005Z,101540.18
2018-04-20T19:35:05.648Z,101529.64
2018-04-20T19:37:33.210Z,101533.73
2018-04-20T19:40:00.794Z,101537.91
2018-04-20T19:42:28.355Z,101534.45
2018-04-20T19:44:55.927Z,101535.80
2018-04-20T19:47:23.555Z,101536.46
2018-04-20T19:49:51.083Z,101534.89
2018-04-20T19:52:18.601Z,101534.25
2018-04-20T19:54:46.126Z,101530.62
2018-04-20T19:57:13.659Z,101528.91
2018-04-20T19:59:41.206Z,101530.71
2018-04-20T20:02:08.776Z,101530.64
2018-04-20T20:04:36.324Z,101527.41
2018-04-20T20:07:03.936Z,101535.30
2018-04-20T20:09:31.457Z,101538.75
2018-04-20T20:11:58.977Z,101530.23
2018-04-20T20:14:26.504Z,101531.27
2018-04-20T20:16:54.121Z,101533.56
2018-04-20T20:19:21.703Z,101534.30
2018-04-20T20:21:49.252Z,101532.05
2018-04-20T20:24:16.768Z,101526.89
2018-04-20T20:26:44.304Z,101524.82
2018-04-20T20:29:11.821Z,101520.72
2018-04-20T20:31:39.343Z,101514.55
2018-04-20T20:34:07.484Z,101511.23
2018-04-20T20:36:35.077Z,101514.55
2018-04-20T20:39:02.617Z,101519.48
2018-04-20T20:41:30.128Z,101515.02
2018-04-20T20:43:57.662Z,101521.93
2018-04-20T20:46:25.194Z,101510.52
2018-04-20T20:48:52.724Z,101515.58
2018-04-20T20:51:20.278Z,101508.27
2018-04-20T20:53:47.804Z,101507.43
2018-04-20T20:56:15.332Z,101508.70
2018-04-20T20:58:42.860Z,101507.49
2018-04-20T21:01:10.391Z,101501.80
2018-04-20T21:03:37.919Z,101502.84
2018-04-20T21:06:05.442Z,101505.13
2018-04-20T21:08:32.962Z,101500.39
2018-04-20T21:11:00.521Z,101498.20
2018-04-20T21:13:28.047Z,101498.93
2018-04-20T21:15:55.571Z,101496.48
2018-04-20T21:18:23.118Z,101496.82
2018-04-20T21:20:51.141Z,101497.31
2018-04-20T21:23:18.675Z,101498.67
2018-04-20T21:25:46.198Z,101501.82
2018-04-20T21:28:13.735Z,101496.13
2018-04-20T21:30:41.266Z,101497.39
2018-04-20T21:33:08.793Z,101493.12
2018-04-20T21:35:36.321Z,101494.98
2018-04-20T21:38:03.852Z,101498.09
2018-04-20T21:40:31.372Z,101492.80
2018-04-20T21:42:58.900Z,101489.69
2018-04-20T21:45:26.435Z,101491.40
2018-04-20T21:47:53.966Z,101497.34
2018-04-20T21:50:21.509Z,101497.92
2018-04-20T21:52:49.040Z,101499.84
2018-04-20T21:55:16.564Z,101498.67
2018-04-20T21:57:44.087Z,101504.83
2018-04-20T22:00:11.619Z,101507.83
2018-04-20T22:02:39.143Z,101520.06
2018-04-20T22:05:06.700Z,101516.66
2018-04-20T22:07:34.286Z,101518.70
2018-04-20T22:10:01.794Z,101514.19
2018-04-20T22:12:29.312Z,101518.95
2018-04-20T22:14:56.835Z,101512.30
2018-04-20T22:17:24.374Z,101514.31
2018-04-20T22:19:51.960Z,101518.39
2018-04-20T22:22:19.483Z,101519.82
2018-04-20T22:24:47.000Z,101514.45
2018-04-20T22:27:14.535Z,101515.50
2018-04-20T22:29:42.093Z,101518.16
2018-04-20T22:32:09.622Z,101520.45
2018-04-20T22:34:37.147Z,101519.77
2018-04-20T22:37:04.670Z,101513.47
2018-04-20T22:39:32.203Z,101516.49
2018-04-20T22:41:59.760Z,101518.80
2018-04-20T22:44:27.279Z,101516.33
2018-04-20T22:46:54.823Z,101518.30
2018-04-20T22:49:22.340Z,101520.97
2018-04-20T22:51:49.943Z,101520.16
2018-04-20T22:54:17.490Z,101509.39
2018-04-20T22:56:45.008Z,101514.91
2018-04-20T22:59:12.532Z,101515.39
2018-04-20T23:01:40.066Z,101508.03
2018-04-20T23:04:07.597Z,101509.86
2018-04-20T23:06:35.114Z,101506.84
2018-04-20T23:09:02.735Z,101500.73
2018-04-20T23:11:30.269Z,101499.45
2018-04-20T23:13:57.797Z,101504.34
2018-04-20T23:16:25.470Z,101505.63
2018-04-20T23:18:53.020Z,101503.98
2018-04-20T23:21:20.551Z,101503.06
2018-04-20T23:23:48.075Z,101493.99
2018-04-20T23:26:15.593Z,101495.55
2018-04-20T23:28:43.133Z,101498.16
2018-04-20T23:31:10.651Z,101496.06
2018-04-20T23:33:38.235Z,101492.50
2018-04-20T23:36:05.858Z,101488.03
2018-04-20T23:38:33.323Z,101487.14
2018-04-20T23:41:00.928Z,101480.07
2018-04-20T23:43:28.452Z,101485.66
2018-04-20T23:45:55.973Z,101487.99
2018-04-20T23:48:23.506Z,101490.91
2018-04-20T23:50:51.065Z,101490.64
2018-04-20T23:53:18.592Z,101482.86
2018-04-20T23:55:46.110Z,101483.42
2018-04-20T23:58:13.740Z,101480.57
